sensor_id;sensor_type;location;lat;lon;timestamp;P1;durP1;ratioP1;P2;durP2;ratioP2
34920;SDS011;21128;50.016;20.002;2024-02-26T00:00:11;35.90;;;13.80;;
34920;SDS011;21128;50.016;20.002;2024-02-26T00:02:58;25.60;;;13.60;;
34920;SDS011;21128;50.016;20.002;2024-02-26T00:05:25;28.80;;;14.10;;
34920;SDS011;21128;50.016;20.002;2024-02-26T00:07:52;30.30;;;14.20;;
34920;SDS011;21128;50.016;20.002;2024-02-26T00:10:19;33.30;;;14.50;;
34920;SDS011;21128;50.016;20.002;2024-02-26T00:12:46;27.80;;;14.20;;
34920;SDS011;21128;50.016;20.002;2024-02-26T00:15:13;28.60;;;15.30;;
34920;SDS011;21128;50.016;20.002;2024-02-26T00:17:40;25.20;;;15.00;;
34920;SDS011;21128;50.016;20.002;2024-02-26T00:20:07;31.50;;;14.30;;
34920;SDS011;21128;50.016;20.002;2024-02-26T00:22:35;30.40;;;14.50;;
34920;SDS011;21128;50.016;20.002;2024-02-26T00:25:03;38.00;;;16.50;;
34920;SDS011;21128;50.016;20.002;2024-02-26T00:27:30;27.50;;;14.30;;
34920;SDS011;21128;50.016;20.002;2024-02-26T00:29:57;29.10;;;15.00;;
34920;SDS011;21128;50.016;20.002;2024-02-26T00:32:24;25.30;;;13.70;;
34920;SDS011;21128;50.016;20.002;2024-02-26T00:34:50;30.00;;;14.80;;
34920;SDS011;21128;50.016;20.002;2024-02-26T00:37:18;31.90;;;14.60;;
34920;SDS011;21128;50.016;20.002;2024-02-26T00:39:45;28.30;;;14.20;;
34920;SDS011;21128;50.016;20.002;2024-02-26T00:42:13;30.70;;;14.60;;
34920;SDS011;21128;50.016;20.002;2024-02-26T00:44:40;29.50;;;15.00;;
34920;SDS011;21128;50.016;20.002;2024-02-26T00:47:06;30.90;;;15.60;;
34920;SDS011;21128;50.016;20.002;2024-02-26T00:49:33;27.60;;;15.70;;
34920;SDS011;21128;50.016;20.002;2024-02-26T00:52:00;30.60;;;15.80;;
34920;SDS011;21128;50.016;20.002;2024-02-26T00:54:27;32.70;;;15.40;;
34920;SDS011;21128;50.016;20.002;2024-02-26T00:56:53;24.70;;;13.60;;
34920;SDS011;21128;50.016;20.002;2024-02-26T00:59:20;28.10;;;15.50;;
34920;SDS011;21128;50.016;20.002;2024-02-26T01:01:47;24.70;;;14.10;;
34920;SDS011;21128;50.016;20.002;2024-02-26T01:04:14;27.20;;;14.60;;
34920;SDS011;21128;50.016;20.002;2024-02-26T01:06:41;33.70;;;15.50;;
34920;SDS011;21128;50.016;20.002;2024-02-26T01:09:08;30.50;;;14.90;;
34920;SDS011;21128;50.016;20.002;2024-02-26T01:11:35;31.20;;;15.30;;
34920;SDS011;21128;50.016;20.002;2024-02-26T01:14:02;30.00;;;16.00;;
34920;SDS011;21128;50.016;20.002;2024-02-26T01:16:30;35.50;;;16.60;;
34920;SDS011;21128;50.016;20.002;2024-02-26T01:18:58;27.40;;;16.00;;
34920;SDS011;21128;50.016;20.002;2024-02-26T01:21:25;32.60;;;15.30;;
34920;SDS011;21128;50.016;20.002;2024-02-26T01:23:53;30.40;;;15.40;;
34920;SDS011;21128;50.016;20.002;2024-02-26T01:26:20;24.60;;;14.80;;
34920;SDS011;21128;50.016;20.002;2024-02-26T01:28:48;29.10;;;14.40;;
34920;SDS011;21128;50.016;20.002;2024-02-26T01:31:15;29.20;;;15.00;;
34920;SDS011;21128;50.016;20.002;2024-02-26T01:33:42;27.10;;;15.20;;
34920;SDS011;21128;50.016;20.002;2024-02-26T01:36:09;39.20;;;16.90;;
34920;SDS011;21128;50.016;20.002;2024-02-26T01:38:35;33.10;;;18.90;;
34920;SDS011;21128;50.016;20.002;2024-02-26T01:41:02;34.00;;;18.80;;
34920;SDS011;21128;50.016;20.002;2024-02-26T01:43:29;35.80;;;19.70;;
34920;SDS011;21128;50.016;20.002;2024-02-26T01:45:56;22.70;;;13.70;;
34920;SDS011;21128;50.016;20.002;2024-02-26T01:48:22;25.90;;;15.20;;
34920;SDS011;21128;50.016;20.002;2024-02-26T01:50:49;29.20;;;14.60;;
34920;SDS011;21128;50.016;20.002;2024-02-26T01:53:18;30.20;;;15.50;;
34920;SDS011;21128;50.016;20.002;2024-02-26T01:55:46;36.40;;;15.70;;
34920;SDS011;21128;50.016;20.002;2024-02-26T01:58:13;29.20;;;15.00;;
34920;SDS011;21128;50.016;20.002;2024-02-26T02:00:40;38.40;;;16.30;;
34920;SDS011;21128;50.016;20.002;2024-02-26T02:03:07;33.80;;;16.60;;
34920;SDS011;21128;50.016;20.002;2024-02-26T02:05:35;28.60;;;15.80;;
34920;SDS011;21128;50.016;20.002;2024-02-26T02:08:09;31.60;;;16.10;;
34920;SDS011;21128;50.016;20.002;2024-02-26T02:10:41;31.10;;;15.90;;
34920;SDS011;21128;50.016;20.002;2024-02-26T02:13:09;31.10;;;15.40;;
34920;SDS011;21128;50.016;20.002;2024-02-26T02:15:35;30.70;;;14.60;;
34920;SDS011;21128;50.016;20.002;2024-02-26T02:18:02;33.50;;;15.70;;
34920;SDS011;21128;50.016;20.002;2024-02-26T02:20:32;26.30;;;14.80;;
34920;SDS011;21128;50.016;20.002;2024-02-26T02:23:00;34.10;;;16.80;;
34920;SDS011;21128;50.016;20.002;2024-02-26T02:25:28;33.40;;;18.00;;
34920;SDS011;21128;50.016;20.002;2024-02-26T02:27:55;31.80;;;17.30;;
34920;SDS011;21128;50.016;20.002;2024-02-26T02:30:24;31.20;;;16.80;;
34920;SDS011;21128;50.016;20.002;2024-02-26T02:32:53;28.10;;;16.50;;
34920;SDS011;21128;50.016;20.002;2024-02-26T02:35:20;29.40;;;16.30;;
34920;SDS011;21128;50.016;20.002;2024-02-26T02:37:47;33.50;;;17.00;;
34920;SDS011;21128;50.016;20.002;2024-02-26T02:40:13;28.40;;;16.40;;
34920;SDS011;21128;50.016;20.002;2024-02-26T02:42:41;31.30;;;16.40;;
34920;SDS011;21128;50.016;20.002;2024-02-26T02:45:08;29.80;;;16.40;;
34920;SDS011;21128;50.016;20.002;2024-02-26T02:47:38;33.10;;;16.20;;
34920;SDS011;21128;50.016;20.002;2024-02-26T02:50:05;29.90;;;15.80;;
34920;SDS011;21128;50.016;20.002;2024-02-26T02:52:32;31.40;;;15.90;;
34920;SDS011;21128;50.016;20.002;2024-02-26T02:55:00;26.60;;;14.20;;
34920;SDS011;21128;50.016;20.002;2024-02-26T02:57:28;27.40;;;15.00;;
34920;SDS011;21128;50.016;20.002;2024-02-26T02:59:56;29.70;;;14.70;;
34920;SDS011;21128;50.016;20.002;2024-02-26T03:02:23;27.10;;;15.00;;
34920;SDS011;21128;50.016;20.002;2024-02-26T03:04:51;31.50;;;14.40;;
34920;SDS011;21128;50.016;20.002;2024-02-26T03:07:18;30.90;;;15.20;;
34920;SDS011;21128;50.016;20.002;2024-02-26T03:09:45;27.40;;;14.70;;
34920;SDS011;21128;50.016;20.002;2024-02-26T03:12:12;25.20;;;13.80;;
34920;SDS011;21128;50.016;20.002;2024-02-26T03:14:39;27.30;;;15.60;;
34920;SDS011;21128;50.016;20.002;2024-02-26T03:17:06;28.60;;;15.20;;
34920;SDS011;21128;50.016;20.002;2024-02-26T03:19:33;32.70;;;16.40;;
34920;SDS011;21128;50.016;20.002;2024-02-26T03:21:59;32.70;;;17.10;;
34920;SDS011;21128;50.016;20.002;2024-02-26T03:24:26;31.50;;;16.80;;
34920;SDS011;21128;50.016;20.002;2024-02-26T03:26:53;34.10;;;16.60;;
34920;SDS011;21128;50.016;20.002;2024-02-26T03:29:20;31.10;;;15.90;;
34920;SDS011;21128;50.016;20.002;2024-02-26T03:31:46;33.00;;;18.10;;
34920;SDS011;21128;50.016;20.002;2024-02-26T03:34:13;35.70;;;16.90;;
34920;SDS011;21128;50.016;20.002;2024-02-26T03:36:41;34.60;;;16.70;;
34920;SDS011;21128;50.016;20.002;2024-02-26T03:39:08;31.00;;;16.80;;
34920;SDS011;21128;50.016;20.002;2024-02-26T03:41:36;34.20;;;16.10;;
34920;SDS011;21128;50.016;20.002;2024-02-26T03:44:03;32.60;;;17.40;;
34920;SDS011;21128;50.016;20.002;2024-02-26T03:46:31;39.90;;;19.20;;
34920;SDS011;21128;50.016;20.002;2024-02-26T03:48:57;35.90;;;18.10;;
34920;SDS011;21128;50.016;20.002;2024-02-26T03:51:24;37.30;;;16.90;;
34920;SDS011;21128;50.016;20.002;2024-02-26T03:53:53;36.80;;;18.10;;
34920;SDS011;21128;50.016;20.002;2024-02-26T03:56:20;41.10;;;20.60;;
34920;SDS011;21128;50.016;20.002;2024-02-26T03:58:47;39.50;;;19.90;;
34920;SDS011;21128;50.016;20.002;2024-02-26T04:01:13;38.60;;;21.80;;
34920;SDS011;21128;50.016;20.002;2024-02-26T04:03:40;37.00;;;21.20;;
34920;SDS011;21128;50.016;20.002;2024-02-26T04:06:08;35.70;;;18.70;;
34920;SDS011;21128;50.016;20.002;2024-02-26T04:08:37;42.80;;;20.80;;
34920;SDS011;21128;50.016;20.002;2024-02-26T04:11:04;39.60;;;21.10;;
34920;SDS011;21128;50.016;20.002;2024-02-26T04:13:34;36.30;;;21.20;;
34920;SDS011;21128;50.016;20.002;2024-02-26T04:16:01;45.10;;;20.30;;
34920;SDS011;21128;50.016;20.002;2024-02-26T04:18:28;39.10;;;20.10;;
34920;SDS011;21128;50.016;20.002;2024-02-26T04:20:55;34.90;;;20.30;;
34920;SDS011;21128;50.016;20.002;2024-02-26T04:23:23;42.70;;;20.70;;
34920;SDS011;21128;50.016;20.002;2024-02-26T04:25:50;44.00;;;22.30;;
34920;SDS011;21128;50.016;20.002;2024-02-26T04:28:19;42.90;;;21.00;;
34920;SDS011;21128;50.016;20.002;2024-02-26T04:30:47;35.50;;;21.30;;
34920;SDS011;21128;50.016;20.002;2024-02-26T04:33:14;33.40;;;19.20;;
34920;SDS011;21128;50.016;20.002;2024-02-26T04:35:41;35.80;;;19.60;;
34920;SDS011;21128;50.016;20.002;2024-02-26T04:38:08;36.50;;;18.20;;
34920;SDS011;21128;50.016;20.002;2024-02-26T04:40:34;34.10;;;18.10;;
34920;SDS011;21128;50.016;20.002;2024-02-26T04:43:01;37.00;;;19.40;;
34920;SDS011;21128;50.016;20.002;2024-02-26T04:45:28;38.10;;;20.00;;
34920;SDS011;21128;50.016;20.002;2024-02-26T04:47:54;42.00;;;20.70;;
34920;SDS011;21128;50.016;20.002;2024-02-26T04:50:21;39.50;;;20.60;;
34920;SDS011;21128;50.016;20.002;2024-02-26T04:52:48;36.00;;;18.10;;
34920;SDS011;21128;50.016;20.002;2024-02-26T04:55:15;29.40;;;17.00;;
34920;SDS011;21128;50.016;20.002;2024-02-26T04:57:42;47.00;;;19.50;;
34920;SDS011;21128;50.016;20.002;2024-02-26T05:00:09;41.00;;;20.70;;
34920;SDS011;21128;50.016;20.002;2024-02-26T05:02:37;31.70;;;17.30;;
34920;SDS011;21128;50.016;20.002;2024-02-26T05:05:05;34.60;;;18.90;;
34920;SDS011;21128;50.016;20.002;2024-02-26T05:07:32;33.00;;;17.90;;
34920;SDS011;21128;50.016;20.002;2024-02-26T05:09:59;32.50;;;17.70;;
34920;SDS011;21128;50.016;20.002;2024-02-26T05:12:26;36.20;;;17.90;;
34920;SDS011;21128;50.016;20.002;2024-02-26T05:14:53;32.90;;;18.50;;
34920;SDS011;21128;50.016;20.002;2024-02-26T05:17:20;36.40;;;18.70;;
34920;SDS011;21128;50.016;20.002;2024-02-26T05:19:46;36.40;;;18.50;;
34920;SDS011;21128;50.016;20.002;2024-02-26T05:22:13;33.30;;;17.80;;
34920;SDS011;21128;50.016;20.002;2024-02-26T05:24:40;34.40;;;19.40;;
34920;SDS011;21128;50.016;20.002;2024-02-26T05:27:07;35.10;;;17.30;;
34920;SDS011;21128;50.016;20.002;2024-02-26T05:29:33;34.30;;;17.90;;
34920;SDS011;21128;50.016;20.002;2024-02-26T05:32:00;37.60;;;18.30;;
34920;SDS011;21128;50.016;20.002;2024-02-26T05:34:27;37.90;;;18.50;;
34920;SDS011;21128;50.016;20.002;2024-02-26T05:36:54;41.10;;;18.90;;
34920;SDS011;21128;50.016;20.002;2024-02-26T05:39:20;29.00;;;17.30;;
34920;SDS011;21128;50.016;20.002;2024-02-26T05:41:47;44.00;;;19.70;;
34920;SDS011;21128;50.016;20.002;2024-02-26T05:44:16;29.80;;;19.00;;
34920;SDS011;21128;50.016;20.002;2024-02-26T05:46:43;44.60;;;19.50;;
34920;SDS011;21128;50.016;20.002;2024-02-26T05:49:09;37.30;;;19.30;;
34920;SDS011;21128;50.016;20.002;2024-02-26T05:51:36;38.80;;;18.90;;
34920;SDS011;21128;50.016;20.002;2024-02-26T05:54:03;38.40;;;18.50;;
34920;SDS011;21128;50.016;20.002;2024-02-26T05:56:30;35.60;;;18.50;;
34920;SDS011;21128;50.016;20.002;2024-02-26T05:58:56;40.60;;;19.70;;
34920;SDS011;21128;50.016;20.002;2024-02-26T06:01:23;40.40;;;20.70;;
34920;SDS011;21128;50.016;20.002;2024-02-26T06:03:51;38.00;;;20.90;;
34920;SDS011;21128;50.016;20.002;2024-02-26T06:06:18;40.40;;;19.50;;
34920;SDS011;21128;50.016;20.002;2024-02-26T06:08:45;39.60;;;20.60;;
34920;SDS011;21128;50.016;20.002;2024-02-26T06:11:11;43.30;;;20.60;;
34920;SDS011;21128;50.016;20.002;2024-02-26T06:13:38;38.60;;;20.10;;
34920;SDS011;21128;50.016;20.002;2024-02-26T06:16:07;40.40;;;18.70;;
34920;SDS011;21128;50.016;20.002;2024-02-26T06:18:34;43.90;;;20.70;;
34920;SDS011;21128;50.016;20.002;2024-02-26T06:21:01;48.10;;;20.20;;
34920;SDS011;21128;50.016;20.002;2024-02-26T06:23:28;45.50;;;21.00;;
34920;SDS011;21128;50.016;20.002;2024-02-26T06:25:55;54.80;;;26.10;;
34920;SDS011;21128;50.016;20.002;2024-02-26T06:28:22;40.10;;;23.00;;
34920;SDS011;21128;50.016;20.002;2024-02-26T06:30:48;45.40;;;23.10;;
34920;SDS011;21128;50.016;20.002;2024-02-26T06:33:16;43.60;;;21.60;;
34920;SDS011;21128;50.016;20.002;2024-02-26T06:35:43;35.70;;;20.00;;
34920;SDS011;21128;50.016;20.002;2024-02-26T06:38:10;33.60;;;18.80;;
34920;SDS011;21128;50.016;20.002;2024-02-26T06:40:39;33.30;;;20.00;;
34920;SDS011;21128;50.016;20.002;2024-02-26T06:43:06;32.40;;;19.70;;
34920;SDS011;21128;50.016;20.002;2024-02-26T06:45:33;38.10;;;18.90;;
34920;SDS011;21128;50.016;20.002;2024-02-26T06:48:00;43.50;;;20.20;;
34920;SDS011;21128;50.016;20.002;2024-02-26T06:50:27;37.90;;;18.00;;
34920;SDS011;21128;50.016;20.002;2024-02-26T06:52:54;35.10;;;18.30;;
34920;SDS011;21128;50.016;20.002;2024-02-26T06:55:21;31.70;;;17.40;;
34920;SDS011;21128;50.016;20.002;2024-02-26T06:57:48;32.10;;;18.70;;
34920;SDS011;21128;50.016;20.002;2024-02-26T07:00:14;31.10;;;18.20;;
34920;SDS011;21128;50.016;20.002;2024-02-26T07:02:43;28.30;;;16.40;;
34920;SDS011;21128;50.016;20.002;2024-02-26T07:05:10;31.30;;;17.20;;
34920;SDS011;21128;50.016;20.002;2024-02-26T07:07:37;38.10;;;17.10;;
34920;SDS011;21128;50.016;20.002;2024-02-26T07:10:04;30.60;;;15.90;;
34920;SDS011;21128;50.016;20.002;2024-02-26T07:12:32;31.10;;;17.80;;
34920;SDS011;21128;50.016;20.002;2024-02-26T07:14:59;27.70;;;17.30;;
34920;SDS011;21128;50.016;20.002;2024-02-26T07:17:27;33.00;;;17.70;;
34920;SDS011;21128;50.016;20.002;2024-02-26T07:19:54;32.90;;;19.20;;
34920;SDS011;21128;50.016;20.002;2024-02-26T07:22:20;30.30;;;16.50;;
34920;SDS011;21128;50.016;20.002;2024-02-26T07:24:47;25.70;;;16.10;;
34920;SDS011;21128;50.016;20.002;2024-02-26T07:27:14;33.10;;;18.10;;
34920;SDS011;21128;50.016;20.002;2024-02-26T07:29:44;28.30;;;17.20;;
34920;SDS011;21128;50.016;20.002;2024-02-26T07:32:10;29.70;;;17.40;;
34920;SDS011;21128;50.016;20.002;2024-02-26T07:34:37;32.20;;;17.00;;
34920;SDS011;21128;50.016;20.002;2024-02-26T07:37:07;25.70;;;15.50;;
34920;SDS011;21128;50.016;20.002;2024-02-26T07:39:34;26.90;;;16.30;;
34920;SDS011;21128;50.016;20.002;2024-02-26T07:42:02;26.50;;;15.70;;
34920;SDS011;21128;50.016;20.002;2024-02-26T07:44:29;26.40;;;14.60;;
34920;SDS011;21128;50.016;20.002;2024-02-26T07:46:56;27.30;;;14.40;;
34920;SDS011;21128;50.016;20.002;2024-02-26T07:49:23;35.60;;;15.80;;
34920;SDS011;21128;50.016;20.002;2024-02-26T07:51:49;25.80;;;15.50;;
34920;SDS011;21128;50.016;20.002;2024-02-26T07:54:16;24.40;;;15.50;;
34920;SDS011;21128;50.016;20.002;2024-02-26T07:56:43;26.70;;;15.10;;
34920;SDS011;21128;50.016;20.002;2024-02-26T07:59:10;21.90;;;14.90;;
34920;SDS011;21128;50.016;20.002;2024-02-26T08:01:36;24.90;;;15.40;;
34920;SDS011;21128;50.016;20.002;2024-02-26T08:04:05;24.60;;;14.70;;
34920;SDS011;21128;50.016;20.002;2024-02-26T08:06:32;35.90;;;14.80;;
34920;SDS011;21128;50.016;20.002;2024-02-26T08:08:59;22.60;;;13.80;;
34920;SDS011;21128;50.016;20.002;2024-02-26T08:11:26;25.10;;;14.20;;
34920;SDS011;21128;50.016;20.002;2024-02-26T08:13:52;23.00;;;12.80;;
34920;SDS011;21128;50.016;20.002;2024-02-26T08:16:19;21.80;;;13.40;;
34920;SDS011;21128;50.016;20.002;2024-02-26T08:18:46;21.60;;;12.50;;
34920;SDS011;21128;50.016;20.002;2024-02-26T08:21:13;20.00;;;12.10;;
34920;SDS011;21128;50.016;20.002;2024-02-26T08:23:40;17.40;;;11.10;;
34920;SDS011;21128;50.016;20.002;2024-02-26T08:26:06;16.80;;;10.30;;
34920;SDS011;21128;50.016;20.002;2024-02-26T08:28:37;17.20;;;9.00;;
34920;SDS011;21128;50.016;20.002;2024-02-26T08:31:04;19.10;;;9.70;;
34920;SDS011;21128;50.016;20.002;2024-02-26T08:33:32;15.90;;;10.20;;
34920;SDS011;21128;50.016;20.002;2024-02-26T08:36:03;17.90;;;10.80;;
34920;SDS011;21128;50.016;20.002;2024-02-26T08:38:31;16.50;;;10.10;;
34920;SDS011;21128;50.016;20.002;2024-02-26T08:41:01;17.10;;;11.60;;
34920;SDS011;21128;50.016;20.002;2024-02-26T08:43:29;21.50;;;11.90;;
34920;SDS011;21128;50.016;20.002;2024-02-26T08:45:56;19.20;;;11.10;;
34920;SDS011;21128;50.016;20.002;2024-02-26T08:48:24;27.40;;;11.00;;
34920;SDS011;21128;50.016;20.002;2024-02-26T08:50:50;25.40;;;10.40;;
34920;SDS011;21128;50.016;20.002;2024-02-26T08:53:17;22.20;;;12.70;;
34920;SDS011;21128;50.016;20.002;2024-02-26T08:55:44;23.30;;;12.10;;
34920;SDS011;21128;50.016;20.002;2024-02-26T08:58:11;29.40;;;16.00;;
34920;SDS011;21128;50.016;20.002;2024-02-26T09:00:38;38.50;;;16.60;;
34920;SDS011;21128;50.016;20.002;2024-02-26T09:03:04;31.80;;;18.10;;
34920;SDS011;21128;50.016;20.002;2024-02-26T09:05:33;34.90;;;18.50;;
34920;SDS011;21128;50.016;20.002;2024-02-26T09:07:59;34.30;;;19.00;;
34920;SDS011;21128;50.016;20.002;2024-02-26T09:10:26;29.00;;;16.90;;
34920;SDS011;21128;50.016;20.002;2024-02-26T09:12:53;28.80;;;16.60;;
34920;SDS011;21128;50.016;20.002;2024-02-26T09:15:21;24.90;;;14.70;;
34920;SDS011;21128;50.016;20.002;2024-02-26T09:17:48;25.60;;;15.00;;
34920;SDS011;21128;50.016;20.002;2024-02-26T09:20:16;27.00;;;12.40;;
34920;SDS011;21128;50.016;20.002;2024-02-26T09:22:46;25.60;;;13.20;;
34920;SDS011;21128;50.016;20.002;2024-02-26T09:25:13;25.50;;;11.80;;
34920;SDS011;21128;50.016;20.002;2024-02-26T09:27:42;27.20;;;12.10;;
34920;SDS011;21128;50.016;20.002;2024-02-26T09:30:10;29.70;;;13.50;;
34920;SDS011;21128;50.016;20.002;2024-02-26T09:32:38;27.10;;;13.90;;
34920;SDS011;21128;50.016;20.002;2024-02-26T09:35:06;26.40;;;13.10;;
34920;SDS011;21128;50.016;20.002;2024-02-26T09:37:33;23.70;;;12.70;;
34920;SDS011;21128;50.016;20.002;2024-02-26T09:40:03;28.40;;;12.80;;
34920;SDS011;21128;50.016;20.002;2024-02-26T09:42:32;21.60;;;13.20;;
34920;SDS011;21128;50.016;20.002;2024-02-26T09:45:01;21.50;;;10.70;;
34920;SDS011;21128;50.016;20.002;2024-02-26T09:47:34;15.90;;;8.90;;
34920;SDS011;21128;50.016;20.002;2024-02-26T09:50:02;18.60;;;8.10;;
34920;SDS011;21128;50.016;20.002;2024-02-26T09:52:31;20.20;;;8.50;;
34920;SDS011;21128;50.016;20.002;2024-02-26T09:54:59;18.20;;;8.20;;
34920;SDS011;21128;50.016;20.002;2024-02-26T09:57:26;11.00;;;7.70;;
34920;SDS011;21128;50.016;20.002;2024-02-26T09:59:54;14.50;;;8.60;;
34920;SDS011;21128;50.016;20.002;2024-02-26T10:02:25;16.40;;;8.10;;
34920;SDS011;21128;50.016;20.002;2024-02-26T10:04:52;15.50;;;6.50;;
34920;SDS011;21128;50.016;20.002;2024-02-26T10:07:22;8.90;;;5.30;;
34920;SDS011;21128;50.016;20.002;2024-02-26T10:09:49;9.60;;;5.40;;
34920;SDS011;21128;50.016;20.002;2024-02-26T10:12:16;10.10;;;5.00;;
34920;SDS011;21128;50.016;20.002;2024-02-26T10:14:44;9.20;;;4.20;;
34920;SDS011;21128;50.016;20.002;2024-02-26T10:17:11;12.50;;;4.30;;
34920;SDS011;21128;50.016;20.002;2024-02-26T10:19:38;14.00;;;3.90;;
34920;SDS011;21128;50.016;20.002;2024-02-26T10:22:04;12.40;;;3.90;;
34920;SDS011;21128;50.016;20.002;2024-02-26T10:24:31;4.30;;;3.00;;
34920;SDS011;21128;50.016;20.002;2024-02-26T10:26:58;5.80;;;3.50;;
34920;SDS011;21128;50.016;20.002;2024-02-26T10:29:25;7.50;;;3.30;;
34920;SDS011;21128;50.016;20.002;2024-02-26T10:31:52;7.50;;;3.40;;
34920;SDS011;21128;50.016;20.002;2024-02-26T10:34:19;5.10;;;3.10;;
34920;SDS011;21128;50.016;20.002;2024-02-26T10:36:49;4.70;;;2.50;;
34920;SDS011;21128;50.016;20.002;2024-02-26T10:39:16;8.80;;;2.80;;
34920;SDS011;21128;50.016;20.002;2024-02-26T10:41:43;3.70;;;2.30;;
34920;SDS011;21128;50.016;20.002;2024-02-26T10:44:12;5.20;;;2.50;;
34920;SDS011;21128;50.016;20.002;2024-02-26T10:46:40;8.80;;;2.20;;
34920;SDS011;21128;50.016;20.002;2024-02-26T10:49:12;5.90;;;2.70;;
34920;SDS011;21128;50.016;20.002;2024-02-26T10:51:42;4.90;;;2.30;;
34920;SDS011;21128;50.016;20.002;2024-02-26T10:54:12;6.40;;;2.40;;
34920;SDS011;21128;50.016;20.002;2024-02-26T10:56:42;5.10;;;2.60;;
34920;SDS011;21128;50.016;20.002;2024-02-26T10:59:10;3.30;;;2.10;;
34920;SDS011;21128;50.016;20.002;2024-02-26T11:01:37;2.80;;;1.50;;
34920;SDS011;21128;50.016;20.002;2024-02-26T11:04:08;4.20;;;1.60;;
34920;SDS011;21128;50.016;20.002;2024-02-26T11:06:36;4.30;;;2.10;;
34920;SDS011;21128;50.016;20.002;2024-02-26T11:09:04;3.30;;;1.90;;
34920;SDS011;21128;50.016;20.002;2024-02-26T11:11:32;2.30;;;1.50;;
34920;SDS011;21128;50.016;20.002;2024-02-26T11:14:03;3.50;;;1.50;;
34920;SDS011;21128;50.016;20.002;2024-02-26T11:16:31;5.40;;;2.10;;
34920;SDS011;21128;50.016;20.002;2024-02-26T11:19:02;5.00;;;2.40;;
34920;SDS011;21128;50.016;20.002;2024-02-26T11:21:29;3.00;;;1.80;;
34920;SDS011;21128;50.016;20.002;2024-02-26T11:24:13;6.80;;;2.00;;
34920;SDS011;21128;50.016;20.002;2024-02-26T11:26:44;4.60;;;2.00;;
34920;SDS011;21128;50.016;20.002;2024-02-26T11:29:34;5.60;;;1.50;;
34920;SDS011;21128;50.016;20.002;2024-02-26T11:32:06;3.20;;;1.90;;
34920;SDS011;21128;50.016;20.002;2024-02-26T11:34:33;4.80;;;1.90;;
34920;SDS011;21128;50.016;20.002;2024-02-26T11:39:56;3.60;;;2.00;;
34920;SDS011;21128;50.016;20.002;2024-02-26T11:42:26;3.40;;;1.80;;
34920;SDS011;21128;50.016;20.002;2024-02-26T11:44:53;3.10;;;1.90;;
34920;SDS011;21128;50.016;20.002;2024-02-26T11:47:21;4.40;;;1.80;;
34920;SDS011;21128;50.016;20.002;2024-02-26T11:49:49;5.80;;;1.70;;
34920;SDS011;21128;50.016;20.002;2024-02-26T11:52:16;3.20;;;2.10;;
34920;SDS011;21128;50.016;20.002;2024-02-26T11:54:44;7.40;;;2.00;;
34920;SDS011;21128;50.016;20.002;2024-02-26T11:59:55;5.20;;;2.20;;
34920;SDS011;21128;50.016;20.002;2024-02-26T12:02:39;7.30;;;2.00;;
34920;SDS011;21128;50.016;20.002;2024-02-26T12:05:09;3.80;;;1.90;;
34920;SDS011;21128;50.016;20.002;2024-02-26T12:07:46;3.00;;;1.60;;
34920;SDS011;21128;50.016;20.002;2024-02-26T12:15:30;2.70;;;2.00;;
34920;SDS011;21128;50.016;20.002;2024-02-26T12:18:02;3.00;;;2.00;;
34920;SDS011;21128;50.016;20.002;2024-02-26T12:20:31;2.90;;;2.40;;
34920;SDS011;21128;50.016;20.002;2024-02-26T12:22:58;3.50;;;2.10;;
34920;SDS011;21128;50.016;20.002;2024-02-26T12:25:26;7.40;;;2.20;;
34920;SDS011;21128;50.016;20.002;2024-02-26T12:27:54;5.40;;;2.10;;
34920;SDS011;21128;50.016;20.002;2024-02-26T12:30:24;3.60;;;2.00;;
34920;SDS011;21128;50.016;20.002;2024-02-26T12:32:55;4.10;;;2.40;;
34920;SDS011;21128;50.016;20.002;2024-02-26T12:35:24;4.00;;;2.00;;
34920;SDS011;21128;50.016;20.002;2024-02-26T12:37:52;4.30;;;2.10;;
34920;SDS011;21128;50.016;20.002;2024-02-26T12:40:20;5.00;;;2.00;;
34920;SDS011;21128;50.016;20.002;2024-02-26T12:42:47;4.70;;;2.40;;
34920;SDS011;21128;50.016;20.002;2024-02-26T12:45:15;6.00;;;2.10;;
34920;SDS011;21128;50.016;20.002;2024-02-26T12:47:43;2.60;;;2.00;;
34920;SDS011;21128;50.016;20.002;2024-02-26T12:50:12;2.60;;;2.10;;
34920;SDS011;21128;50.016;20.002;2024-02-26T12:52:40;6.80;;;2.10;;
34920;SDS011;21128;50.016;20.002;2024-02-26T12:55:11;2.80;;;1.80;;
34920;SDS011;21128;50.016;20.002;2024-02-26T12:57:41;4.00;;;2.40;;
34920;SDS011;21128;50.016;20.002;2024-02-26T13:00:12;6.00;;;2.50;;
34920;SDS011;21128;50.016;20.002;2024-02-26T13:02:43;3.20;;;2.20;;
34920;SDS011;21128;50.016;20.002;2024-02-26T13:05:12;3.30;;;2.40;;
34920;SDS011;21128;50.016;20.002;2024-02-26T13:07:43;10.80;;;2.90;;
34920;SDS011;21128;50.016;20.002;2024-02-26T13:10:13;3.90;;;2.60;;
34920;SDS011;21128;50.016;20.002;2024-02-26T13:12:44;4.30;;;2.30;;
34920;SDS011;21128;50.016;20.002;2024-02-26T13:15:15;10.90;;;3.20;;
34920;SDS011;21128;50.016;20.002;2024-02-26T13:17:47;6.50;;;3.20;;
34920;SDS011;21128;50.016;20.002;2024-02-26T13:20:33;8.00;;;3.30;;
34920;SDS011;21128;50.016;20.002;2024-02-26T13:23:04;5.50;;;3.40;;
34920;SDS011;21128;50.016;20.002;2024-02-26T13:25:32;8.80;;;4.10;;
34920;SDS011;21128;50.016;20.002;2024-02-26T13:28:19;6.60;;;4.30;;
34920;SDS011;21128;50.016;20.002;2024-02-26T13:30:52;4.20;;;3.80;;
34920;SDS011;21128;50.016;20.002;2024-02-26T13:33:23;5.50;;;3.40;;
34920;SDS011;21128;50.016;20.002;2024-02-26T13:35:51;5.90;;;4.00;;
34920;SDS011;21128;50.016;20.002;2024-02-26T13:38:19;6.20;;;4.00;;
34920;SDS011;21128;50.016;20.002;2024-02-26T13:40:46;8.70;;;4.10;;
34920;SDS011;21128;50.016;20.002;2024-02-26T13:43:13;8.40;;;4.00;;
34920;SDS011;21128;50.016;20.002;2024-02-26T13:45:40;5.50;;;4.00;;
34920;SDS011;21128;50.016;20.002;2024-02-26T13:48:07;12.10;;;4.40;;
34920;SDS011;21128;50.016;20.002;2024-02-26T13:50:38;6.90;;;3.70;;
34920;SDS011;21128;50.016;20.002;2024-02-26T13:53:06;8.20;;;5.20;;
34920;SDS011;21128;50.016;20.002;2024-02-26T13:55:33;6.60;;;4.00;;
34920;SDS011;21128;50.016;20.002;2024-02-26T13:58:00;9.00;;;4.80;;
34920;SDS011;21128;50.016;20.002;2024-02-26T14:00:28;6.30;;;4.90;;
34920;SDS011;21128;50.016;20.002;2024-02-26T14:03:00;8.90;;;5.70;;
34920;SDS011;21128;50.016;20.002;2024-02-26T14:05:28;9.40;;;6.60;;
34920;SDS011;21128;50.016;20.002;2024-02-26T14:07:56;11.30;;;6.20;;
34920;SDS011;21128;50.016;20.002;2024-02-26T14:10:23;13.90;;;6.50;;
34920;SDS011;21128;50.016;20.002;2024-02-26T14:12:50;10.90;;;6.60;;
34920;SDS011;21128;50.016;20.002;2024-02-26T14:15:17;11.00;;;7.40;;
34920;SDS011;21128;50.016;20.002;2024-02-26T14:17:43;10.00;;;6.60;;
34920;SDS011;21128;50.016;20.002;2024-02-26T14:20:10;13.90;;;7.00;;
34920;SDS011;21128;50.016;20.002;2024-02-26T14:22:37;13.10;;;6.90;;
34920;SDS011;21128;50.016;20.002;2024-02-26T14:25:04;10.80;;;7.00;;
34920;SDS011;21128;50.016;20.002;2024-02-26T14:27:31;14.20;;;7.30;;
34920;SDS011;21128;50.016;20.002;2024-02-26T14:29:57;12.30;;;7.90;;